Time;durP1;ratioP1;P1;durP2;ratioP2;P2;SDS_P1;SDS_P2;PMS_P1;PMS_P2;Temp;Humidity;BMP_temperature;BMP_pressure;BME280_temperature;BME280_humidity;BME280_pressure;Samples;Min_cycle;Max_cycle;Signal;HPM_P1;HPM_P2
2021/01/17 00:01:48;;;;;;;3.08;1.33;;;0.70;91.50;;;;;;5133728;28;20036;-75
2021/01/17 00:04:14;;;;;;;3.13;1.40;;;0.70;91.50;;;;;;5134250;28;20034;-75
2021/01/17 00:06:40;;;;;;;3.05;1.40;;;0.60;91.40;;;;;;5133985;28;20047;-75
2021/01/17 00:09:05;;;;;;;3.25;1.67;;;0.70;91.50;;;;;;5133477;28;20039;-75
2021/01/17 00:11:31;;;;;;;3.60;1.65;;;0.70;91.50;;;;;;5133792;28;20440;-75
2021/01/17 00:13:57;;;;;;;3.42;1.40;;;0.70;91.50;;;;;;5133478;28;20398;-77
2021/01/17 00:16:22;;;;;;;3.65;1.65;;;0.70;91.50;;;;;;5133528;28;20088;-75
2021/01/17 00:18:48;;;;;;;3.47;1.85;;;0.60;91.50;;;;;;5133363;28;20431;-75
2021/01/17 00:21:14;;;;;;;3.80;1.80;;;0.70;91.50;;;;;;5133824;28;20159;-75
2021/01/17 00:23:39;;;;;;;3.47;1.88;;;0.70;91.50;;;;;;5133749;28;20046;-75
2021/01/17 00:26:05;;;;;;;4.15;1.75;;;0.70;91.50;;;;;;5133451;28;20035;-75
2021/01/17 00:28:31;;;;;;;3.53;1.80;;;0.70;91.60;;;;;;5133414;28;20031;-75
2021/01/17 00:30:57;;;;;;;2.80;1.60;;;0.80;91.60;;;;;;5133631;28;20047;-75
2021/01/17 00:33:22;;;;;;;3.05;1.55;;;0.60;91.50;;;;;;5098036;28;20034;-75
2021/01/17 00:35:48;;;;;;;3.47;1.58;;;0.70;91.50;;;;;;5115115;28;20532;-75
2021/01/17 00:38:14;;;;;;;2.35;1.15;;;0.80;91.60;;;;;;5132856;28;20193;-75
2021/01/17 00:40:39;;;;;;;3.45;1.77;;;0.70;91.50;;;;;;5132906;28;20039;-75
2021/01/17 00:43:05;;;;;;;3.17;1.30;;;0.70;91.50;;;;;;5133009;28;20085;-75
2021/01/17 00:45:31;;;;;;;3.42;1.30;;;0.80;91.50;;;;;;5133002;28;20066;-75
2021/01/17 00:47:56;;;;;;;4.07;1.58;;;0.70;91.50;;;;;;5133464;28;20039;-75
2021/01/17 00:50:23;;;;;;;2.92;1.73;;;0.90;91.60;;;;;;5133203;28;20129;-75
2021/01/17 00:52:56;;;;;;;3.70;1.70;;;0.80;91.50;;;;;;5133317;28;20041;-75
2021/01/17 00:55:22;;;;;;;4.45;2.00;;;0.70;91.50;;;;;;5133345;28;20500;-76
2021/01/17 00:57:48;;;;;;;3.25;1.67;;;0.70;91.50;;;;;;5133232;28;20064;-75
2021/01/17 01:00:16;;;;;;;3.72;1.80;;;0.70;91.50;;;;;;5114580;28;20043;-75
2021/01/17 01:02:43;;;;;;;3.72;1.73;;;0.70;91.50;;;;;;5132905;27;20046;-75
2021/01/17 01:05:09;;;;;;;4.25;1.83;;;0.70;91.60;;;;;;5112944;28;20059;-75
2021/01/17 01:07:36;;;;;;;4.28;2.10;;;0.80;91.60;;;;;;5114771;28;20375;-75
2021/01/17 01:10:06;;;;;;;4.18;1.88;;;0.70;91.60;;;;;;5132835;28;20036;-75
2021/01/17 01:12:31;;;;;;;3.28;1.60;;;0.70;91.60;;;;;;5114389;28;20046;-75
2021/01/17 01:14:57;;;;;;;3.70;1.70;;;0.70;91.60;;;;;;5114972;28;20039;-75
2021/01/17 01:17:25;;;;;;;4.20;1.98;;;0.70;91.60;;;;;;5128913;28;20066;-75
2021/01/17 01:19:50;;;;;;;4.03;1.90;;;0.70;91.60;;;;;;5133104;28;20035;-75
2021/01/17 01:22:16;;;;;;;4.50;2.33;;;0.70;91.60;;;;;;5132769;28;20118;-75
2021/01/17 01:24:42;;;;;;;3.88;1.88;;;0.70;91.60;;;;;;5132606;28;20031;-74
2021/01/17 01:27:11;;;;;;;4.82;1.67;;;0.70;91.60;;;;;;5114719;28;20078;-75
2021/01/17 01:29:37;;;;;;;3.58;1.73;;;0.70;91.60;;;;;;5114858;28;20065;-75
2021/01/17 01:32:03;;;;;;;3.55;1.60;;;0.70;91.60;;;;;;5114098;28;20118;-76
2021/01/17 01:34:28;;;;;;;4.40;1.90;;;0.70;91.60;;;;;;5133099;28;20061;-76
2021/01/17 01:36:54;;;;;;;2.53;1.25;;;0.70;91.60;;;;;;5132388;28;20440;-75
2021/01/17 01:39:20;;;;;;;3.53;1.83;;;0.70;91.60;;;;;;5132926;28;20143;-76
2021/01/17 01:41:45;;;;;;;4.75;2.05;;;0.70;91.60;;;;;;5132877;28;20034;-75
2021/01/17 01:44:11;;;;;;;3.85;1.70;;;0.80;91.60;;;;;;5132997;28;20074;-75
2021/01/17 01:46:39;;;;;;;4.13;2.00;;;0.80;91.60;;;;;;5132776;28;20028;-75
2021/01/17 01:49:06;;;;;;;3.33;1.75;;;0.80;91.60;;;;;;5114099;28;20054;-75
2021/01/17 01:51:32;;;;;;;4.72;2.10;;;0.80;91.70;;;;;;5096973;28;20074;-75
2021/01/17 01:53:58;;;;;;;2.63;1.48;;;0.80;91.70;;;;;;5132234;28;20035;-76
2021/01/17 01:56:24;;;;;;;3.75;1.55;;;0.90;91.70;;;;;;5132166;28;20042;-75
2021/01/17 01:58:52;;;;;;;4.40;1.90;;;0.80;91.60;;;;;;5132501;28;20031;-75
2021/01/17 02:01:18;;;;;;;2.45;1.30;;;1.00;91.70;;;;;;5132613;28;20043;-76
2021/01/17 02:03:46;;;;;;;4.07;2.05;;;0.90;91.70;;;;;;5131999;28;20126;-75
2021/01/17 02:06:13;;;;;;;3.47;1.50;;;0.80;91.60;;;;;;5132017;28;20046;-75
2021/01/17 02:09:17;;;;;;;4.05;1.88;;;0.90;91.70;;;;;;5113701;28;20127;-76
2021/01/17 02:11:57;;;;;;;3.15;1.33;;;0.80;91.70;;;;;;5131925;28;20447;-75
2021/01/17 02:14:38;;;;;;;2.30;1.30;;;0.90;91.70;;;;;;5115869;28;20394;-75
2021/01/17 02:17:06;;;;;;;3.53;1.45;;;0.90;91.70;;;;;;5136191;28;20479;-75
2021/01/17 02:19:37;;;;;;;3.05;1.38;;;0.80;91.70;;;;;;5135447;28;20043;-75
2021/01/17 02:22:05;;;;;;;3.22;1.30;;;0.90;91.70;;;;;;5135958;28;20053;-76
2021/01/17 02:24:49;;;;;;;2.58;1.20;;;0.90;91.70;;;;;;5135894;28;20041;-75
2021/01/17 02:27:16;;;;;;;3.58;1.50;;;0.90;91.80;;;;;;5135280;28;20453;-75
2021/01/17 02:29:47;;;;;;;2.10;1.27;;;0.80;91.70;;;;;;5135495;28;20070;-76
2021/01/17 02:32:17;;;;;;;3.53;1.35;;;0.80;91.70;;;;;;5135234;28;20061;-76
2021/01/17 02:34:45;;;;;;;3.35;1.65;;;0.80;91.70;;;;;;5135368;28;20031;-76
2021/01/17 02:37:38;;;;;;;2.65;1.58;;;0.80;91.80;;;;;;5115987;28;20051;-75
2021/01/17 02:40:09;;;;;;;3.15;1.25;;;0.80;91.80;;;;;;5134990;28;20050;-75
2021/01/17 02:42:37;;;;;;;3.77;1.73;;;0.80;91.70;;;;;;5116674;28;20072;-75
2021/01/17 02:45:04;;;;;;;3.47;1.60;;;0.80;91.70;;;;;;5134963;28;20046;-75
2021/01/17 02:47:30;;;;;;;2.80;1.55;;;1.00;91.80;;;;;;5135255;28;20114;-76
2021/01/17 02:49:55;;;;;;;2.53;1.30;;;0.80;91.80;;;;;;5134846;28;20122;-76
2021/01/17 02:52:35;;;;;;;3.03;1.73;;;0.80;91.80;;;;;;5135293;28;20035;-76
2021/01/17 02:55:01;;;;;;;4.50;1.92;;;0.90;91.80;;;;;;5135239;28;20082;-75
2021/01/17 02:57:31;;;;;;;4.10;1.48;;;0.90;91.80;;;;;;5134688;28;20039;-75
2021/01/17 03:00:07;;;;;;;4.03;1.70;;;0.80;91.80;;;;;;5135151;28;20047;-75
2021/01/17 03:02:35;;;;;;;2.60;1.30;;;0.80;91.80;;;;;;5134723;28;20050;-75
2021/01/17 03:05:05;;;;;;;3.92;1.90;;;0.80;91.90;;;;;;5134671;28;20543;-75
2021/01/17 03:07:34;;;;;;;5.05;2.20;;;0.90;91.80;;;;;;5134953;28;20512;-76
2021/01/17 03:10:02;;;;;;;4.70;2.20;;;0.90;92.10;;;;;;5116510;28;20422;-75
2021/01/17 03:12:27;;;;;;;4.85;2.17;;;0.90;91.80;;;;;;5134519;28;20046;-75
2021/01/17 03:14:54;;;;;;;4.93;2.10;;;0.90;91.80;;;;;;5134327;28;20031;-75
2021/01/17 03:17:20;;;;;;;4.45;1.83;;;0.90;91.80;;;;;;5134066;28;20119;-75
2021/01/17 03:19:46;;;;;;;3.85;1.80;;;0.80;91.80;;;;;;5134893;28;20088;-75
2021/01/17 03:22:11;;;;;;;3.35;1.55;;;0.90;91.90;;;;;;5134854;28;20050;-75
2021/01/17 03:24:37;;;;;;;5.05;1.80;;;0.90;91.90;;;;;;5134194;27;20042;-75
2021/01/17 03:27:03;;;;;;;5.32;1.67;;;0.90;91.90;;;;;;5134285;28;20047;-75
2021/01/17 03:29:29;;;;;;;3.92;1.83;;;0.80;91.80;;;;;;5115737;28;20455;-75
2021/01/17 03:31:55;;;;;;;5.80;2.00;;;1.00;91.90;;;;;;5134610;28;20121;-74
2021/01/17 03:34:20;;;;;;;4.10;2.05;;;0.80;91.90;;;;;;5116255;28;20032;-75
2021/01/17 03:36:46;;;;;;;3.35;1.73;;;0.90;91.90;;;;;;5134647;28;20154;-75
2021/01/17 03:39:12;;;;;;;4.75;2.03;;;0.90;91.90;;;;;;5134642;28;20038;-75
2021/01/17 03:41:37;;;;;;;2.38;1.23;;;0.90;91.90;;;;;;5134321;28;20452;-75
2021/01/17 03:44:03;;;;;;;3.33;1.52;;;0.90;91.90;;;;;;5134073;28;20112;-75
2021/01/17 03:46:31;;;;;;;2.40;1.15;;;0.90;92.00;;;;;;5114507;28;20112;-75
2021/01/17 03:48:57;;;;;;;4.57;2.13;;;0.90;91.90;;;;;;5133943;28;20039;-75
2021/01/17 03:51:23;;;;;;;2.97;1.38;;;1.00;91.90;;;;;;5113870;28;20133;-74
2021/01/17 03:53:49;;;;;;;3.85;1.50;;;1.00;91.90;;;;;;5134250;28;20047;-75
2021/01/17 03:56:15;;;;;;;3.67;1.67;;;0.90;91.90;;;;;;5114105;28;20074;-75
2021/01/17 03:58:40;;;;;;;3.50;1.55;;;0.90;92.00;;;;;;5098490;28;20035;-75
2021/01/17 04:01:06;;;;;;;3.13;1.40;;;0.90;92.00;;;;;;5133939;28;20176;-75
2021/01/17 04:03:32;;;;;;;3.58;1.63;;;0.90;92.00;;;;;;5134175;28;20039;-75
2021/01/17 04:05:57;;;;;;;3.75;1.70;;;0.90;92.00;;;;;;5134229;28;20039;-75
2021/01/17 04:08:23;;;;;;;3.25;1.50;;;0.90;92.00;;;;;;5134114;28;20043;-76
2021/01/17 04:10:49;;;;;;;2.53;1.40;;;1.00;92.00;;;;;;5133583;28;20105;-75
2021/01/17 04:13:15;;;;;;;3.13;1.40;;;0.90;92.00;;;;;;5115229;28;20542;-75
2021/01/17 04:15:40;;;;;;;2.38;1.25;;;0.90;92.00;;;;;;5098120;28;20130;-76
2021/01/17 04:18:06;;;;;;;3.08;1.23;;;1.00;92.00;;;;;;5133513;28;20537;-75
2021/01/17 04:20:32;;;;;;;2.30;1.15;;;1.00;92.10;;;;;;5097097;28;20050;-75
2021/01/17 04:23:01;;;;;;;1.17;0.68;;;1.00;92.10;;;;;;5133471;28;20043;-75
2021/01/17 04:25:29;;;;;;;3.53;1.50;;;1.00;92.00;;;;;;5115294;28;20062;-75
2021/01/17 04:27:55;;;;;;;2.03;1.15;;;1.10;92.10;;;;;;5133636;28;20065;-76
2021/01/17 04:30:22;;;;;;;2.35;1.10;;;1.10;92.10;;;;;;5133210;28;20054;-76
2021/01/17 04:32:49;;;;;;;2.22;1.10;;;1.10;92.10;;;;;;5133084;28;20035;-76
2021/01/17 04:35:15;;;;;;;2.10;1.00;;;1.10;92.00;;;;;;5133214;28;20072;-76
2021/01/17 04:37:40;;;;;;;1.58;0.93;;;1.10;92.00;;;;;;5114209;28;20035;-76
2021/01/17 04:40:07;;;;;;;1.55;0.95;;;1.10;92.10;;;;;;5132924;28;20043;-76
2021/01/17 04:42:36;;;;;;;3.03;1.38;;;1.10;92.10;;;;;;5097835;28;20039;-76
2021/01/17 04:45:08;;;;;;;3.20;1.60;;;1.10;92.10;;;;;;5133241;28;20038;-76
2021/01/17 04:47:36;;;;;;;2.38;1.10;;;1.10;92.10;;;;;;5132973;28;20038;-76
2021/01/17 04:50:06;;;;;;;3.83;1.45;;;1.00;92.10;;;;;;5133136;28;20115;-76
2021/01/17 04:52:58;;;;;;;3.15;1.30;;;1.10;92.10;;;;;;5133333;28;20035;-76
2021/01/17 04:55:24;;;;;;;2.65;1.10;;;1.10;92.10;;;;;;5132964;28;20054;-76
2021/01/17 04:58:11;;;;;;;3.00;1.48;;;1.10;92.10;;;;;;5133317;28;20034;-77
2021/01/17 05:00:41;;;;;;;2.35;1.10;;;1.10;92.10;;;;;;5132891;28;20043;-77
2021/01/17 05:03:38;;;;;;;2.10;1.15;;;1.10;92.10;;;;;;5133643;28;20040;-77
2021/01/17 05:06:25;;;;;;;3.25;1.08;;;1.10;92.10;;;;;;5117862;28;20039;-77
2021/01/17 05:08:58;;;;;;;2.13;1.23;;;1.10;92.10;;;;;;5097858;28;20031;-77
2021/01/17 05:11:32;;;;;;;1.98;1.08;;;1.10;92.10;;;;;;5114658;28;20051;-78
2021/01/17 05:14:22;;;;;;;1.50;1.00;;;1.10;92.10;;;;;;5133011;28;20062;-78
2021/01/17 05:16:48;;;;;;;2.42;1.20;;;1.20;92.10;;;;;;5133462;28;20039;-78
2021/01/17 05:19:19;;;;;;;2.53;1.10;;;1.20;92.10;;;;;;5114652;28;20035;-78
2021/01/17 05:21:48;;;;;;;2.17;1.10;;;1.10;92.10;;;;;;5114384;28;20070;-79
2021/01/17 05:24:19;;;;;;;2.67;1.10;;;1.20;92.10;;;;;;5133451;28;20032;-79
2021/01/17 05:26:57;;;;;;;2.08;1.10;;;1.10;92.10;;;;;;5114836;28;20078;-79
2021/01/17 05:29:25;;;;;;;2.65;1.50;;;1.00;92.10;;;;;;5133351;28;20066;-79
2021/01/17 05:31:56;;;;;;;2.88;1.30;;;1.10;92.10;;;;;;5133313;28;20064;-79
2021/01/17 05:34:23;;;;;;;2.60;1.20;;;1.10;92.10;;;;;;5113342;28;20032;-79
2021/01/17 05:37:01;;;;;;;1.50;0.88;;;1.10;92.20;;;;;;5114822;28;20039;-80
2021/01/17 05:40:03;;;;;;;1.17;0.68;;;1.20;92.20;;;;;;5096455;28;20046;-81
2021/01/17 05:43:03;;;;;;;2.17;1.10;;;1.20;92.20;;;;;;5068106;28;20059;-81
2021/01/17 05:45:59;;;;;;;1.38;0.65;;;1.20;92.20;;;;;;4991370;28;20042;-80
2021/01/17 05:48:35;;;;;;;1.23;0.68;;;1.20;92.20;;;;;;4989658;28;20069;-80
2021/01/17 05:51:01;;;;;;;1.20;1.05;;;1.20;92.20;;;;;;4993753;28;20050;-80
2021/01/17 05:53:27;;;;;;;2.08;0.93;;;1.30;92.20;;;;;;4994017;28;20095;-81
2021/01/17 05:55:53;;;;;;;2.03;0.98;;;1.20;92.20;;;;;;4993494;28;20402;-81
2021/01/17 05:58:25;;;;;;;1.35;0.55;;;1.30;92.20;;;;;;4993258;28;20038;-80
2021/01/17 06:00:54;;;;;;;1.23;0.77;;;1.30;92.20;;;;;;4993441;28;20050;-80
2021/01/17 06:03:24;;;;;;;1.02;0.88;;;1.20;92.20;;;;;;4993202;28;20077;-81
2021/01/17 06:05:51;;;;;;;1.67;0.88;;;1.30;92.30;;;;;;4993396;28;20038;-80
2021/01/17 06:08:19;;;;;;;0.63;0.40;;;1.30;92.20;;;;;;4993092;28;20140;-80
2021/01/17 06:10:46;;;;;;;1.17;0.40;;;1.30;92.20;;;;;;4993230;28;20046;-81
2021/01/17 06:13:24;;;;;;;0.73;0.40;;;1.40;92.30;;;;;;5014318;28;20124;-81
2021/01/17 06:15:51;;;;;;;1.92;1.00;;;1.40;92.30;;;;;;5028695;28;20854;-81
2021/01/17 06:18:19;;;;;;;1.05;0.50;;;1.40;92.30;;;;;;5029135;28;20034;-81
2021/01/17 06:20:46;;;;;;;0.68;0.50;;;1.30;92.20;;;;;;5045942;28;20109;-80
2021/01/17 06:23:19;;;;;;;1.45;0.80;;;1.40;92.30;;;;;;5137146;28;20106;-80
2021/01/17 06:25:45;;;;;;;1.92;0.80;;;1.40;92.30;;;;;;5138088;28;20032;-80
2021/01/17 06:28:13;;;;;;;1.55;1.00;;;1.40;92.30;;;;;;5138951;28;20034;-80
2021/01/17 06:30:40;;;;;;;1.05;0.60;;;1.40;92.30;;;;;;5118445;28;20076;-80
2021/01/17 06:33:06;;;;;;;1.30;0.70;;;1.40;92.30;;;;;;5139080;28;20031;-78
2021/01/17 06:35:34;;;;;;;1.65;1.20;;;1.30;92.30;;;;;;5157427;28;20047;-79
2021/01/17 06:38:19;;;;;;;1.27;0.90;;;1.40;92.30;;;;;;5140192;28;20039;-79
2021/01/17 06:40:46;;;;;;;1.80;1.10;;;1.40;92.30;;;;;;5140530;28;20051;-78
2021/01/17 06:43:13;;;;;;;1.40;0.98;;;1.40;92.30;;;;;;5138499;28;20043;-79
2021/01/17 06:45:41;;;;;;;3.47;1.35;;;1.30;92.30;;;;;;5157179;28;20027;-79
2021/01/17 06:48:07;;;;;;;1.67;0.90;;;1.40;92.30;;;;;;5155851;28;20471;-78
2021/01/17 06:50:33;;;;;;;1.25;0.63;;;1.40;92.30;;;;;;5149138;28;20487;-79
2021/01/17 06:52:59;;;;;;;1.63;0.85;;;1.30;92.30;;;;;;5137309;28;20116;-78
2021/01/17 06:55:25;;;;;;;1.35;0.75;;;1.40;92.30;;;;;;5120389;28;20051;-78
2021/01/17 06:57:52;;;;;;;0.63;0.40;;;1.40;92.30;;;;;;5128372;28;20555;-78
2021/01/17 07:00:21;;;;;;;1.08;0.70;;;1.30;92.30;;;;;;5156487;27;20051;-78
2021/01/17 07:02:51;;;;;;;1.42;0.82;;;1.40;92.30;;;;;;5156207;27;20054;-77
2021/01/17 07:05:36;;;;;;;1.85;0.80;;;1.40;92.30;;;;;;5139009;28;20023;-76
2021/01/17 07:08:29;;;;;;;1.10;0.63;;;1.50;92.40;;;;;;5157600;28;20027;-77
2021/01/17 07:11:29;;;;;;;1.45;0.80;;;1.50;92.30;;;;;;5130286;28;20114;-76
2021/01/17 07:14:04;;;;;;;1.77;0.75;;;1.50;92.30;;;;;;5141271;28;20043;-77
2021/01/17 07:16:32;;;;;;;1.15;0.73;;;1.50;92.30;;;;;;5145995;28;20039;-76
2021/01/17 07:19:03;;;;;;;0.77;0.60;;;1.50;92.30;;;;;;5144884;28;20138;-76
2021/01/17 07:21:36;;;;;;;1.45;0.80;;;1.50;92.30;;;;;;5139791;28;20039;-76
2021/01/17 07:24:05;;;;;;;1.08;0.63;;;1.50;92.30;;;;;;5146174;28;20058;-76
2021/01/17 07:26:47;;;;;;;1.52;0.60;;;1.50;92.30;;;;;;5147755;28;20517;-76
2021/01/17 07:29:16;;;;;;;0.98;0.60;;;1.60;92.40;;;;;;5144861;28;20045;-77
2021/01/17 07:31:48;;;;;;;0.88;0.75;;;1.50;92.30;;;;;;5135404;28;20039;-77
2021/01/17 07:34:14;;;;;;;1.08;0.63;;;1.60;92.30;;;;;;5117215;28;20617;-77
2021/01/17 07:36:48;;;;;;;1.33;0.73;;;1.50;92.30;;;;;;5102431;28;20048;-77
2021/01/17 07:39:17;;;;;;;1.25;0.63;;;1.50;92.40;;;;;;5135294;28;20088;-78
2021/01/17 07:41:48;;;;;;;1.65;0.80;;;1.50;92.40;;;;;;5134433;28;20403;-76
2021/01/17 07:44:18;;;;;;;3.08;1.08;;;1.50;92.30;;;;;;5116042;28;20043;-77
2021/01/17 07:46:44;;;;;;;3.97;1.05;;;1.50;92.30;;;;;;5135644;28;20502;-76
2021/01/17 07:49:11;;;;;;;1.40;1.00;;;1.50;92.30;;;;;;5138890;28;20039;-78
2021/01/17 07:51:37;;;;;;;2.45;1.27;;;1.50;92.30;;;;;;5119141;28;20043;-78
2021/01/17 07:54:24;;;;;;;2.70;1.20;;;1.50;92.40;;;;;;5104502;28;20098;-78
2021/01/17 07:56:51;;;;;;;2.33;1.00;;;1.50;92.40;;;;;;5111151;28;20051;-78
2021/01/17 07:59:24;;;;;;;2.03;0.95;;;1.50;92.40;;;;;;5113700;28;20062;-78
2021/01/17 08:01:51;;;;;;;2.92;1.27;;;1.40;92.40;;;;;;5151458;28;20043;-78
2021/01/17 08:04:23;;;;;;;2.33;1.08;;;1.50;92.40;;;;;;5155067;28;20035;-78
2021/01/17 08:06:50;;;;;;;2.45;1.08;;;1.50;92.40;;;;;;5155660;28;20037;-78
2021/01/17 08:09:17;;;;;;;2.97;1.10;;;1.50;92.40;;;;;;5152966;28;20110;-79
2021/01/17 08:11:51;;;;;;;2.35;0.95;;;1.40;92.30;;;;;;5153976;27;20037;-78
2021/01/17 08:14:20;;;;;;;1.80;0.80;;;1.50;92.40;;;;;;5153286;28;20498;-78
2021/01/17 08:17:17;;;;;;;2.10;1.08;;;1.50;92.40;;;;;;5137257;28;20482;-78
2021/01/17 08:19:57;;;;;;;1.85;1.13;;;1.50;92.40;;;;;;5155146;28;20035;-79
2021/01/17 08:22:44;;;;;;;2.53;1.30;;;1.50;92.40;;;;;;5155024;28;20641;-79
2021/01/17 08:25:11;;;;;;;2.42;1.15;;;1.60;92.40;;;;;;5153263;28;20031;-80
2021/01/17 08:27:39;;;;;;;2.95;1.10;;;1.50;92.40;;;;;;5127089;28;20047;-80
2021/01/17 08:30:16;;;;;;;2.83;1.00;;;1.60;92.40;;;;;;5141550;28;20051;-80
2021/01/17 08:32:49;;;;;;;2.60;1.23;;;1.60;92.40;;;;;;5105603;28;20035;-80
2021/01/17 08:35:32;;;;;;;2.63;1.30;;;1.70;92.40;;;;;;5139662;28;20035;-80
2021/01/17 08:38:15;;;;;;;2.28;1.10;;;1.60;92.30;;;;;;5118237;28;20083;-76
2021/01/17 08:40:45;;;;;;;2.95;1.15;;;1.60;92.30;;;;;;5138990;28;20072;-78
2021/01/17 08:43:13;;;;;;;2.50;1.10;;;1.70;92.40;;;;;;5109420;28;20117;-79
2021/01/17 08:45:44;;;;;;;1.73;0.93;;;1.70;92.40;;;;;;5104244;28;20521;-77
2021/01/17 08:48:28;;;;;;;2.17;0.98;;;1.70;92.40;;;;;;5138917;28;20053;-80
2021/01/17 08:51:18;;;;;;;1.90;0.95;;;1.70;92.40;;;;;;5101759;28;20046;-77
2021/01/17 08:53:45;;;;;;;2.03;1.00;;;1.90;92.40;;;;;;5117410;28;20078;-78
2021/01/17 08:56:23;;;;;;;2.33;1.10;;;1.80;92.60;;;;;;5113442;28;20417;-80
2021/01/17 08:58:56;;;;;;;3.25;1.30;;;1.90;92.30;;;;;;5135075;28;20134;-83
2021/01/17 09:01:23;;;;;;;1.48;0.80;;;1.90;92.30;;;;;;5105671;28;20035;-79
2021/01/17 09:03:51;;;;;;;1.73;0.90;;;2.00;92.30;;;;;;5120780;28;20039;-78
2021/01/17 09:06:29;;;;;;;1.38;0.93;;;1.90;92.30;;;;;;5127479;28;20050;-80
2021/01/17 09:09:01;;;;;;;0.93;0.57;;;2.10;92.30;;;;;;5137787;28;20031;-77
2021/01/17 09:11:37;;;;;;;1.33;0.70;;;2.20;92.30;;;;;;5117642;28;20104;-78
2021/01/17 09:14:21;;;;;;;0.68;0.40;;;2.20;92.30;;;;;;5136021;27;20063;-78
2021/01/17 09:16:53;;;;;;;3.38;1.10;;;2.20;92.30;;;;;;5069648;28;20039;-76
2021/01/17 09:19:24;;;;;;;1.52;0.80;;;2.20;92.50;;;;;;5070182;28;20611;-77
2021/01/17 09:21:52;;;;;;;1.95;1.10;;;2.20;92.30;;;;;;5053208;28;20051;-81
2021/01/17 09:24:28;;;;;;;1.83;1.00;;;2.30;92.30;;;;;;5066051;28;20061;-80
2021/01/17 09:26:57;;;;;;;1.80;0.80;;;2.20;92.30;;;;;;5078479;28;20047;-80
2021/01/17 09:29:30;;;;;;;1.85;0.90;;;2.30;92.30;;;;;;5063840;28;20047;-83
2021/01/17 09:35:09;;;;;;;1.75;0.88;;;2.40;92.30;;;;;;4966224;28;20042;-81
2021/01/17 09:37:49;;;;;;;2.00;1.05;;;2.40;92.20;;;;;;4975937;28;20054;-82
2021/01/17 09:40:14;;;;;;;1.73;1.00;;;2.40;92.30;;;;;;4968288;28;20892;-80
2021/01/17 09:42:41;;;;;;;2.60;1.20;;;2.40;92.30;;;;;;4984357;28;20089;-79
2021/01/17 09:45:15;;;;;;;2.70;1.17;;;2.50;92.30;;;;;;4974574;28;20062;-79
2021/01/17 09:48:23;;;;;;;1.92;1.00;;;2.60;92.30;;;;;;5078342;22;20545;-80
2021/01/17 09:51:14;;;;;;;3.17;1.17;;;2.70;92.20;;;;;;5034944;28;20057;-82
2021/01/17 09:53:46;;;;;;;2.80;1.10;;;2.70;92.20;;;;;;5004626;28;20046;-82
2021/01/17 09:56:11;;;;;;;;;;;2.80;92.10;;;;;;4989044;28;20034;-77
2021/01/17 09:58:37;;;;;;;1.83;0.90;;;2.80;92.10;;;;;;4990313;28;19957;-79
2021/01/17 10:01:04;;;;;;;3.47;1.40;;;2.80;92.10;;;;;;4985240;28;20073;-77
2021/01/17 10:03:30;;;;;;;1.92;1.05;;;2.80;92.10;;;;;;4957368;28;20031;-78
2021/01/17 10:05:55;;;;;;;3.00;1.45;;;2.80;92.10;;;;;;4973926;28;20100;-79
2021/01/17 10:08:26;;;;;;;2.33;1.08;;;3.00;92.10;;;;;;4973694;28;20034;-79
2021/01/17 10:10:53;;;;;;;4.55;1.70;;;2.80;92.00;;;;;;4957705;28;20544;-79
2021/01/17 10:18:20;;;;;;;3.38;1.33;;;2.80;92.10;;;;;;4991488;28;20056;-87
2021/01/17 10:21:29;;;;;;;4.28;1.60;;;2.80;92.20;;;;;;4899497;29;20405;-88
2021/01/17 10:24:55;;;;;;;3.50;1.50;;;2.90;92.10;;;;;;4897463;29;20062;-86
2021/01/17 10:30:20;;;;;;;2.40;1.02;;;3.00;92.10;;;;;;4890191;29;20099;-83
2021/01/17 10:32:50;;;;;;;3.38;1.35;;;3.00;92.00;;;;;;4901853;29;20044;-81
2021/01/17 10:35:23;;;;;;;2.80;1.48;;;3.10;92.00;;;;;;4863622;29;20081;-79
2021/01/17 10:37:52;;;;;;;2.47;1.30;;;3.10;92.00;;;;;;4893051;29;20037;-79
2021/01/17 10:40:28;;;;;;;2.50;1.30;;;3.20;91.90;;;;;;4892717;29;20052;-79
2021/01/17 10:42:57;;;;;;;2.92;1.58;;;3.30;91.90;;;;;;4877697;29;20053;-79
2021/01/17 10:45:36;;;;;;;2.90;1.55;;;3.40;91.90;;;;;;4892882;29;20199;-79
2021/01/17 10:49:06;;;;;;;3.03;1.33;;;3.50;91.90;;;;;;4892526;29;20044;-84
2021/01/17 10:56:31;;;;;;;3.88;1.83;;;3.50;91.80;;;;;;4871766;29;20119;-82
2021/01/17 11:27:24;;;;;;;3.13;1.20;;;3.70;91.60;;;;;;6306837;22;20117;-83
2021/01/17 11:29:57;;;;;;;4.95;1.52;;;3.80;91.70;;;;;;6168661;23;20055;-79
2021/01/17 11:32:35;;;;;;;3.08;1.30;;;4.00;91.70;;;;;;6162662;23;20013;-80
2021/01/17 11:35:02;;;;;;;4.03;1.60;;;4.10;91.70;;;;;;6179566;23;20044;-77
2021/01/17 11:37:32;;;;;;;3.67;1.60;;;4.30;91.60;;;;;;6163104;23;20002;-76
2021/01/17 11:40:18;;;;;;;4.25;1.40;;;4.60;91.50;;;;;;6183488;23;20009;-76
2021/01/17 11:42:44;;;;;;;2.72;1.20;;;4.70;91.40;;;;;;6185154;23;21484;-76
2021/01/17 11:45:29;;;;;;;2.67;1.30;;;4.80;91.30;;;;;;6131046;23;20025;-76
2021/01/17 11:47:59;;;;;;;4.55;1.58;;;4.90;91.30;;;;;;6162480;23;20013;-76
2021/01/17 11:50:28;;;;;;;3.72;1.55;;;5.00;91.20;;;;;;6123578;23;19999;-76
2021/01/17 11:52:59;;;;;;;4.80;1.40;;;5.00;91.20;;;;;;6123622;23;20030;-76
2021/01/17 11:55:27;;;;;;;3.65;1.48;;;5.20;91.20;;;;;;6123461;23;20025;-75
2021/01/17 11:58:11;;;;;;;2.95;1.45;;;5.30;91.30;;;;;;6092562;23;20018;-75
2021/01/17 12:00:58;;;;;;;3.63;1.73;;;5.20;91.20;;;;;;6106686;23;20024;-75
2021/01/17 12:03:27;;;;;;;3.47;1.60;;;5.20;91.20;;;;;;6066359;23;20034;-75
2021/01/17 12:06:12;;;;;;;5.13;1.73;;;5.30;91.30;;;;;;6087784;23;20025;-75
2021/01/17 12:09:06;;;;;;;3.83;1.63;;;5.30;91.30;;;;;;6154017;23;20025;-75
2021/01/17 12:11:36;;;;;;;4.63;1.60;;;5.30;91.40;;;;;;6154380;23;20013;-75
2021/01/17 12:14:06;;;;;;;5.28;1.40;;;5.30;91.40;;;;;;6154012;23;20021;-75
2021/01/17 12:16:36;;;;;;;2.13;1.00;;;5.20;91.50;;;;;;6154210;23;20040;-76
2021/01/17 12:19:02;;;;;;;2.65;1.20;;;5.20;91.50;;;;;;6145582;23;20021;-76
2021/01/17 12:21:31;;;;;;;4.82;1.45;;;5.30;91.60;;;;;;6193084;23;20039;-76
2021/01/17 12:24:00;;;;;;;4.05;1.33;;;5.20;91.60;;;;;;6239246;23;20068;-76
2021/01/17 12:26:26;;;;;;;3.80;1.30;;;5.40;91.70;;;;;;6213309;23;20008;-76
2021/01/17 12:28:52;;;;;;;4.25;1.13;;;5.40;91.70;;;;;;6213693;23;20038;-76
2021/01/17 12:31:20;;;;;;;4.05;1.42;;;5.60;91.70;;;;;;6239227;23;20013;-77
2021/01/17 12:33:46;;;;;;;3.47;1.25;;;5.70;91.60;;;;;;6252953;22;20041;-76
2021/01/17 12:36:15;;;;;;;3.33;1.35;;;5.90;91.50;;;;;;6301985;22;20032;-76
2021/01/17 12:38:41;;;;;;;3.03;1.02;;;6.00;91.40;;;;;;6301539;22;19988;-76
2021/01/17 12:41:10;;;;;;;3.60;1.20;;;6.20;91.40;;;;;;6275022;22;20023;-76
2021/01/17 12:43:37;;;;;;;3.92;1.30;;;6.30;91.30;;;;;;6302239;22;20031;-76
2021/01/17 12:46:05;;;;;;;2.75;1.05;;;6.40;91.30;;;;;;6276277;22;20012;-76
2021/01/17 12:48:32;;;;;;;4.25;1.10;;;6.50;91.20;;;;;;6301733;22;19988;-76
2021/01/17 12:50:58;;;;;;;2.15;0.80;;;6.60;91.20;;;;;;6275607;22;20008;-76
2021/01/17 12:53:23;;;;;;;3.60;1.40;;;6.70;91.20;;;;;;6275698;22;20586;-76
2021/01/17 12:55:49;;;;;;;3.22;0.80;;;6.80;91.10;;;;;;6302352;22;20325;-76
2021/01/17 12:58:15;;;;;;;3.50;1.00;;;6.80;91.00;;;;;;6301883;22;20010;-76
2021/01/17 13:00:41;;;;;;;2.50;1.00;;;6.90;91.00;;;;;;6275623;22;20011;-76
2021/01/17 13:03:10;;;;;;;3.33;1.00;;;6.80;91.00;;;;;;6274085;22;20014;-77
2021/01/17 13:05:36;;;;;;;4.43;1.10;;;6.90;91.10;;;;;;6300705;22;20008;-76
2021/01/17 13:08:02;;;;;;;1.70;0.88;;;6.90;91.00;;;;;;6300174;22;20059;-76
2021/01/17 13:10:28;;;;;;;2.45;0.82;;;7.00;91.10;;;;;;6300420;22;20539;-77
2021/01/17 13:12:56;;;;;;;1.98;0.85;;;7.10;91.10;;;;;;6289524;22;20003;-80
2021/01/17 13:15:28;;;;;;;2.72;1.10;;;7.20;91.00;;;;;;6285650;22;20450;-77
2021/01/17 13:17:54;;;;;;;1.67;0.93;;;7.30;91.00;;;;;;6277837;22;20012;-78
2021/01/17 13:23:44;;;;;;;2.92;0.93;;;7.30;90.90;;;;;;6243094;23;20057;-80
2021/01/17 13:26:21;;;;;;;2.50;0.93;;;7.30;91.00;;;;;;6218931;23;20012;-80
2021/01/17 13:29:04;;;;;;;1.98;0.77;;;7.30;91.00;;;;;;6227752;23;20054;-79
2021/01/17 13:31:30;;;;;;;3.90;0.93;;;7.40;91.40;;;;;;6165503;23;20319;-78
2021/01/17 13:33:58;;;;;;;3.55;1.20;;;7.50;91.00;;;;;;6217440;23;20023;-79
2021/01/17 13:36:27;;;;;;;3.30;0.90;;;7.80;91.00;;;;;;6217675;23;20082;-81
2021/01/17 13:38:53;;;;;;;3.75;1.13;;;7.50;90.80;;;;;;6245386;23;20015;-79
2021/01/17 13:41:18;;;;;;;2.28;0.95;;;7.50;91.10;;;;;;6217652;23;20341;-79
2021/01/17 13:43:44;;;;;;;1.85;0.73;;;7.50;90.90;;;;;;6129684;23;20017;-78
2021/01/17 13:46:14;;;;;;;3.90;0.70;;;7.50;91.00;;;;;;6133889;23;20065;-79
2021/01/17 13:48:41;;;;;;;2.22;0.77;;;7.40;91.00;;;;;;6188292;23;20757;-80
2021/01/17 13:51:08;;;;;;;2.50;0.70;;;7.40;91.10;;;;;;6173137;23;20017;-78
2021/01/17 13:53:36;;;;;;;1.98;0.68;;;7.40;91.10;;;;;;6173204;23;20021;-78
2021/01/17 13:56:02;;;;;;;2.35;0.80;;;7.40;91.20;;;;;;6175002;23;20025;-76
2021/01/17 13:58:28;;;;;;;1.20;0.40;;;7.30;91.10;;;;;;6168049;23;20017;-76
2021/01/17 14:00:54;;;;;;;2.55;0.80;;;7.30;91.20;;;;;;6196117;23;20020;-76
2021/01/17 14:03:19;;;;;;;4.65;0.90;;;7.30;91.20;;;;;;6196094;23;20039;-74
2021/01/17 14:05:45;;;;;;;2.00;0.70;;;7.30;91.30;;;;;;6201663;23;20009;-76